sensor_id;sensor_type;location;lat;lon;timestamp;P1;durP1;ratioP1;P2;durP2;ratioP2
12577;SDS011;6354;51.026;8.968;2023-04-26T00:00:03;5.30;;;2.83;;
12577;SDS011;6354;51.026;8.968;2023-04-26T00:02:34;6.13;;;3.00;;
12577;SDS011;6354;51.026;8.968;2023-04-26T00:05:04;5.90;;;2.97;;
12577;SDS011;6354;51.026;8.968;2023-04-26T00:07:34;5.90;;;3.00;;
12577;SDS011;6354;51.026;8.968;2023-04-26T00:10:04;6.60;;;3.30;;
12577;SDS011;6354;51.026;8.968;2023-04-26T00:12:33;7.47;;;3.37;;
12577;SDS011;6354;51.026;8.968;2023-04-26T00:15:02;9.03;;;3.63;;
12577;SDS011;6354;51.026;8.968;2023-04-26T00:17:30;6.00;;;3.57;;
12577;SDS011;6354;51.026;8.968;2023-04-26T00:19:58;8.00;;;4.07;;
12577;SDS011;6354;51.026;8.968;2023-04-26T00:22:28;8.73;;;3.73;;
12577;SDS011;6354;51.026;8.968;2023-04-26T00:24:56;4.97;;;3.33;;
12577;SDS011;6354;51.026;8.968;2023-04-26T00:27:25;9.60;;;3.33;;
12577;SDS011;6354;51.026;8.968;2023-04-26T00:29:53;4.23;;;3.13;;
12577;SDS011;6354;51.026;8.968;2023-04-26T00:32:21;5.07;;;3.03;;
12577;SDS011;6354;51.026;8.968;2023-04-26T00:34:49;8.37;;;3.30;;
12577;SDS011;6354;51.026;8.968;2023-04-26T00:37:17;3.93;;;2.90;;
12577;SDS011;6354;51.026;8.968;2023-04-26T00:39:46;9.33;;;3.40;;
12577;SDS011;6354;51.026;8.968;2023-04-26T00:42:14;5.50;;;3.23;;
12577;SDS011;6354;51.026;8.968;2023-04-26T00:44:42;9.13;;;3.70;;
12577;SDS011;6354;51.026;8.968;2023-04-26T00:47:10;5.07;;;3.50;;
12577;SDS011;6354;51.026;8.968;2023-04-26T00:49:38;5.07;;;2.90;;
12577;SDS011;6354;51.026;8.968;2023-04-26T00:52:07;4.53;;;3.33;;
12577;SDS011;6354;51.026;8.968;2023-04-26T00:54:35;5.97;;;3.27;;
12577;SDS011;6354;51.026;8.968;2023-04-26T00:57:04;5.73;;;3.10;;
12577;SDS011;6354;51.026;8.968;2023-04-26T00:59:35;6.37;;;3.40;;
12577;SDS011;6354;51.026;8.968;2023-04-26T01:02:03;8.87;;;3.23;;
12577;SDS011;6354;51.026;8.968;2023-04-26T01:04:31;6.47;;;3.20;;
12577;SDS011;6354;51.026;8.968;2023-04-26T01:07:00;7.63;;;3.40;;
12577;SDS011;6354;51.026;8.968;2023-04-26T01:09:29;7.57;;;3.57;;
12577;SDS011;6354;51.026;8.968;2023-04-26T01:11:58;10.20;;;3.83;;
12577;SDS011;6354;51.026;8.968;2023-04-26T01:14:28;8.90;;;3.23;;
12577;SDS011;6354;51.026;8.968;2023-04-26T01:16:58;7.23;;;3.07;;
12577;SDS011;6354;51.026;8.968;2023-04-26T01:19:26;6.07;;;3.30;;
12577;SDS011;6354;51.026;8.968;2023-04-26T01:21:54;5.47;;;3.43;;
12577;SDS011;6354;51.026;8.968;2023-04-26T01:24:24;7.07;;;3.20;;
12577;SDS011;6354;51.026;8.968;2023-04-26T01:26:52;9.90;;;3.83;;
12577;SDS011;6354;51.026;8.968;2023-04-26T01:29:20;5.23;;;3.13;;
12577;SDS011;6354;51.026;8.968;2023-04-26T01:31:49;11.00;;;4.13;;
12577;SDS011;6354;51.026;8.968;2023-04-26T01:34:17;6.53;;;3.50;;
12577;SDS011;6354;51.026;8.968;2023-04-26T01:36:45;5.10;;;3.20;;
12577;SDS011;6354;51.026;8.968;2023-04-26T01:39:13;6.73;;;3.20;;
12577;SDS011;6354;51.026;8.968;2023-04-26T01:41:42;7.70;;;3.63;;
12577;SDS011;6354;51.026;8.968;2023-04-26T01:44:10;5.27;;;3.90;;
12577;SDS011;6354;51.026;8.968;2023-04-26T01:46:38;4.90;;;2.97;;
12577;SDS011;6354;51.026;8.968;2023-04-26T01:49:07;8.00;;;3.37;;
12577;SDS011;6354;51.026;8.968;2023-04-26T01:51:35;6.80;;;3.37;;
12577;SDS011;6354;51.026;8.968;2023-04-26T01:54:03;8.00;;;3.70;;
12577;SDS011;6354;51.026;8.968;2023-04-26T01:56:31;5.83;;;3.70;;
12577;SDS011;6354;51.026;8.968;2023-04-26T01:59:01;8.73;;;3.47;;
12577;SDS011;6354;51.026;8.968;2023-04-26T02:01:29;7.20;;;3.13;;
12577;SDS011;6354;51.026;8.968;2023-04-26T02:03:57;7.37;;;3.90;;
12577;SDS011;6354;51.026;8.968;2023-04-26T02:06:25;5.60;;;3.50;;
12577;SDS011;6354;51.026;8.968;2023-04-26T02:08:53;6.10;;;3.47;;
12577;SDS011;6354;51.026;8.968;2023-04-26T02:11:22;5.27;;;3.40;;
12577;SDS011;6354;51.026;8.968;2023-04-26T02:13:52;7.57;;;3.67;;
12577;SDS011;6354;51.026;8.968;2023-04-26T02:16:21;7.43;;;3.70;;
12577;SDS011;6354;51.026;8.968;2023-04-26T02:18:50;7.27;;;3.30;;
12577;SDS011;6354;51.026;8.968;2023-04-26T02:21:19;5.70;;;3.20;;
12577;SDS011;6354;51.026;8.968;2023-04-26T02:23:47;7.47;;;3.30;;
12577;SDS011;6354;51.026;8.968;2023-04-26T02:26:15;8.50;;;3.40;;
12577;SDS011;6354;51.026;8.968;2023-04-26T02:28:43;11.63;;;3.87;;
12577;SDS011;6354;51.026;8.968;2023-04-26T02:31:11;7.60;;;3.40;;
12577;SDS011;6354;51.026;8.968;2023-04-26T02:33:41;11.43;;;3.40;;
12577;SDS011;6354;51.026;8.968;2023-04-26T02:36:09;6.73;;;3.70;;
12577;SDS011;6354;51.026;8.968;2023-04-26T02:38:37;6.97;;;3.37;;
12577;SDS011;6354;51.026;8.968;2023-04-26T02:41:06;7.70;;;3.40;;
12577;SDS011;6354;51.026;8.968;2023-04-26T02:43:34;6.47;;;3.13;;
12577;SDS011;6354;51.026;8.968;2023-04-26T02:46:05;7.80;;;3.40;;
12577;SDS011;6354;51.026;8.968;2023-04-26T02:48:33;7.87;;;3.17;;
12577;SDS011;6354;51.026;8.968;2023-04-26T02:51:03;9.37;;;4.03;;
12577;SDS011;6354;51.026;8.968;2023-04-26T02:53:31;6.67;;;3.67;;
12577;SDS011;6354;51.026;8.968;2023-04-26T02:55:59;7.90;;;3.80;;
12577;SDS011;6354;51.026;8.968;2023-04-26T02:58:27;6.43;;;3.80;;
12577;SDS011;6354;51.026;8.968;2023-04-26T03:00:55;10.83;;;4.33;;
12577;SDS011;6354;51.026;8.968;2023-04-26T03:03:26;6.40;;;4.00;;
12577;SDS011;6354;51.026;8.968;2023-04-26T03:05:56;7.07;;;3.43;;
12577;SDS011;6354;51.026;8.968;2023-04-26T03:08:25;8.57;;;4.13;;
12577;SDS011;6354;51.026;8.968;2023-04-26T03:10:53;8.10;;;3.83;;
12577;SDS011;6354;51.026;8.968;2023-04-26T03:13:22;7.97;;;3.63;;
12577;SDS011;6354;51.026;8.968;2023-04-26T03:15:50;8.67;;;3.83;;
12577;SDS011;6354;51.026;8.968;2023-04-26T03:18:18;9.47;;;3.67;;
12577;SDS011;6354;51.026;8.968;2023-04-26T03:20:46;5.40;;;3.43;;
12577;SDS011;6354;51.026;8.968;2023-04-26T03:23:14;5.70;;;3.40;;
12577;SDS011;6354;51.026;8.968;2023-04-26T03:25:44;11.20;;;4.33;;
12577;SDS011;6354;51.026;8.968;2023-04-26T03:28:12;9.63;;;3.37;;
12577;SDS011;6354;51.026;8.968;2023-04-26T03:30:41;5.50;;;3.20;;
12577;SDS011;6354;51.026;8.968;2023-04-26T03:33:09;5.13;;;3.47;;
12577;SDS011;6354;51.026;8.968;2023-04-26T03:35:37;8.47;;;3.80;;
12577;SDS011;6354;51.026;8.968;2023-04-26T03:38:05;9.50;;;3.53;;
12577;SDS011;6354;51.026;8.968;2023-04-26T03:40:33;10.10;;;3.87;;
12577;SDS011;6354;51.026;8.968;2023-04-26T03:43:02;6.13;;;3.40;;
12577;SDS011;6354;51.026;8.968;2023-04-26T03:45:30;6.93;;;4.13;;
12577;SDS011;6354;51.026;8.968;2023-04-26T03:47:58;8.97;;;3.87;;
12577;SDS011;6354;51.026;8.968;2023-04-26T03:50:26;5.43;;;3.73;;
12577;SDS011;6354;51.026;8.968;2023-04-26T03:52:54;6.50;;;3.80;;
12577;SDS011;6354;51.026;8.968;2023-04-26T03:55:22;8.90;;;4.00;;
12577;SDS011;6354;51.026;8.968;2023-04-26T03:57:50;7.60;;;3.97;;
12577;SDS011;6354;51.026;8.968;2023-04-26T04:00:20;13.40;;;4.40;;
12577;SDS011;6354;51.026;8.968;2023-04-26T04:02:48;8.77;;;4.33;;
12577;SDS011;6354;51.026;8.968;2023-04-26T04:05:17;9.33;;;4.00;;
12577;SDS011;6354;51.026;8.968;2023-04-26T04:07:45;8.63;;;4.00;;
12577;SDS011;6354;51.026;8.968;2023-04-26T04:10:13;9.90;;;3.93;;
12577;SDS011;6354;51.026;8.968;2023-04-26T04:12:41;11.23;;;3.90;;
12577;SDS011;6354;51.026;8.968;2023-04-26T04:15:09;8.77;;;4.00;;
12577;SDS011;6354;51.026;8.968;2023-04-26T04:17:39;6.87;;;4.20;;
12577;SDS011;6354;51.026;8.968;2023-04-26T04:20:07;8.23;;;3.90;;
12577;SDS011;6354;51.026;8.968;2023-04-26T04:22:36;10.70;;;4.40;;
12577;SDS011;6354;51.026;8.968;2023-04-26T04:25:05;10.83;;;4.73;;
12577;SDS011;6354;51.026;8.968;2023-04-26T04:27:34;7.63;;;4.00;;
12577;SDS011;6354;51.026;8.968;2023-04-26T04:30:03;9.43;;;3.80;;
12577;SDS011;6354;51.026;8.968;2023-04-26T04:32:33;8.47;;;4.10;;
12577;SDS011;6354;51.026;8.968;2023-04-26T04:35:03;8.77;;;4.53;;
12577;SDS011;6354;51.026;8.968;2023-04-26T04:37:32;9.17;;;3.97;;
12577;SDS011;6354;51.026;8.968;2023-04-26T04:40:00;8.50;;;3.70;;
12577;SDS011;6354;51.026;8.968;2023-04-26T04:42:29;11.47;;;3.93;;
12577;SDS011;6354;51.026;8.968;2023-04-26T04:44:57;11.23;;;3.90;;
12577;SDS011;6354;51.026;8.968;2023-04-26T04:47:25;8.93;;;5.00;;
12577;SDS011;6354;51.026;8.968;2023-04-26T04:49:53;6.23;;;3.80;;
12577;SDS011;6354;51.026;8.968;2023-04-26T04:52:23;8.27;;;4.40;;
12577;SDS011;6354;51.026;8.968;2023-04-26T04:54:51;9.03;;;4.30;;
12577;SDS011;6354;51.026;8.968;2023-04-26T04:57:19;7.70;;;4.00;;
12577;SDS011;6354;51.026;8.968;2023-04-26T04:59:47;8.37;;;4.37;;
12577;SDS011;6354;51.026;8.968;2023-04-26T05:02:15;7.53;;;4.10;;
12577;SDS011;6354;51.026;8.968;2023-04-26T05:04:43;8.73;;;3.67;;
12577;SDS011;6354;51.026;8.968;2023-04-26T05:07:11;8.00;;;4.03;;
12577;SDS011;6354;51.026;8.968;2023-04-26T05:09:42;9.17;;;3.60;;
12577;SDS011;6354;51.026;8.968;2023-04-26T05:12:10;9.47;;;3.87;;
12577;SDS011;6354;51.026;8.968;2023-04-26T05:14:38;6.23;;;3.50;;
12577;SDS011;6354;51.026;8.968;2023-04-26T05:17:07;6.87;;;3.63;;
12577;SDS011;6354;51.026;8.968;2023-04-26T05:19:35;8.03;;;3.63;;
12577;SDS011;6354;51.026;8.968;2023-04-26T05:22:03;9.20;;;3.83;;
12577;SDS011;6354;51.026;8.968;2023-04-26T05:24:31;5.87;;;3.57;;
12577;SDS011;6354;51.026;8.968;2023-04-26T05:27:01;6.57;;;3.10;;
12577;SDS011;6354;51.026;8.968;2023-04-26T05:29:29;6.13;;;3.10;;
12577;SDS011;6354;51.026;8.968;2023-04-26T05:31:57;9.70;;;4.10;;
12577;SDS011;6354;51.026;8.968;2023-04-26T05:34:25;8.47;;;3.73;;
12577;SDS011;6354;51.026;8.968;2023-04-26T05:36:53;7.50;;;4.07;;
12577;SDS011;6354;51.026;8.968;2023-04-26T05:39:21;8.33;;;3.67;;
12577;SDS011;6354;51.026;8.968;2023-04-26T05:41:49;5.93;;;3.10;;
12577;SDS011;6354;51.026;8.968;2023-04-26T05:44:19;9.03;;;4.03;;
12577;SDS011;6354;51.026;8.968;2023-04-26T05:46:47;7.80;;;4.00;;
12577;SDS011;6354;51.026;8.968;2023-04-26T05:49:15;5.97;;;3.57;;
12577;SDS011;6354;51.026;8.968;2023-04-26T05:51:43;10.10;;;3.87;;
12577;SDS011;6354;51.026;8.968;2023-04-26T05:54:11;9.43;;;4.10;;
12577;SDS011;6354;51.026;8.968;2023-04-26T05:56:39;11.30;;;3.80;;
12577;SDS011;6354;51.026;8.968;2023-04-26T05:59:07;8.13;;;4.13;;
12577;SDS011;6354;51.026;8.968;2023-04-26T06:01:36;7.70;;;3.97;;
12577;SDS011;6354;51.026;8.968;2023-04-26T06:04:04;8.77;;;4.93;;
12577;SDS011;6354;51.026;8.968;2023-04-26T06:06:33;8.40;;;4.53;;
12577;SDS011;6354;51.026;8.968;2023-04-26T06:09:02;8.93;;;5.00;;
12577;SDS011;6354;51.026;8.968;2023-04-26T06:11:30;10.70;;;4.33;;
12577;SDS011;6354;51.026;8.968;2023-04-26T06:13:58;11.33;;;4.30;;
12577;SDS011;6354;51.026;8.968;2023-04-26T06:16:26;8.83;;;4.00;;
12577;SDS011;6354;51.026;8.968;2023-04-26T06:18:56;5.93;;;3.70;;
12577;SDS011;6354;51.026;8.968;2023-04-26T06:21:24;10.43;;;4.27;;
12577;SDS011;6354;51.026;8.968;2023-04-26T06:23:52;10.03;;;4.13;;
12577;SDS011;6354;51.026;8.968;2023-04-26T06:26:20;6.47;;;3.80;;
12577;SDS011;6354;51.026;8.968;2023-04-26T06:28:48;9.67;;;4.37;;
12577;SDS011;6354;51.026;8.968;2023-04-26T06:31:16;9.93;;;4.20;;
12577;SDS011;6354;51.026;8.968;2023-04-26T06:33:47;7.53;;;4.30;;
12577;SDS011;6354;51.026;8.968;2023-04-26T06:36:17;10.40;;;3.93;;
12577;SDS011;6354;51.026;8.968;2023-04-26T06:38:44;10.33;;;3.97;;
12577;SDS011;6354;51.026;8.968;2023-04-26T06:41:13;9.87;;;4.40;;
12577;SDS011;6354;51.026;8.968;2023-04-26T06:43:41;10.03;;;4.73;;
12577;SDS011;6354;51.026;8.968;2023-04-26T06:46:09;10.93;;;4.60;;
12577;SDS011;6354;51.026;8.968;2023-04-26T06:48:37;9.17;;;4.40;;
12577;SDS011;6354;51.026;8.968;2023-04-26T06:51:05;10.07;;;4.47;;
12577;SDS011;6354;51.026;8.968;2023-04-26T06:53:35;9.52;;;4.25;;
12577;SDS011;6354;51.026;8.968;2023-04-26T06:56:03;8.82;;;4.32;;
12577;SDS011;6354;51.026;8.968;2023-04-26T06:58:32;8.30;;;4.28;;
12577;SDS011;6354;51.026;8.968;2023-04-26T07:01:00;7.55;;;4.38;;
12577;SDS011;6354;51.026;8.968;2023-04-26T07:03:28;8.88;;;4.20;;
12577;SDS011;6354;51.026;8.968;2023-04-26T07:05:57;11.65;;;4.60;;
12577;SDS011;6354;51.026;8.968;2023-04-26T07:08:25;11.10;;;4.43;;
12577;SDS011;6354;51.026;8.968;2023-04-26T07:10:55;6.80;;;4.53;;
12577;SDS011;6354;51.026;8.968;2023-04-26T07:13:23;6.35;;;4.00;;
12577;SDS011;6354;51.026;8.968;2023-04-26T07:15:51;10.73;;;4.50;;
12577;SDS011;6354;51.026;8.968;2023-04-26T07:18:20;13.85;;;6.85;;
12577;SDS011;6354;51.026;8.968;2023-04-26T07:20:48;8.43;;;4.10;;
12577;SDS011;6354;51.026;8.968;2023-04-26T07:23:16;7.63;;;4.20;;
12577;SDS011;6354;51.026;8.968;2023-04-26T07:25:44;8.93;;;4.55;;
12577;SDS011;6354;51.026;8.968;2023-04-26T07:28:13;9.57;;;4.22;;
12577;SDS011;6354;51.026;8.968;2023-04-26T07:30:42;6.13;;;3.67;;
12577;SDS011;6354;51.026;8.968;2023-04-26T07:33:10;8.32;;;3.80;;
12577;SDS011;6354;51.026;8.968;2023-04-26T07:35:38;9.70;;;3.40;;
12577;SDS011;6354;51.026;8.968;2023-04-26T07:38:06;7.45;;;3.35;;
12577;SDS011;6354;51.026;8.968;2023-04-26T07:40:34;6.90;;;3.10;;
12577;SDS011;6354;51.026;8.968;2023-04-26T07:43:02;8.48;;;3.22;;
12577;SDS011;6354;51.026;8.968;2023-04-26T07:45:32;9.98;;;3.55;;
12577;SDS011;6354;51.026;8.968;2023-04-26T07:48:00;9.45;;;3.75;;
12577;SDS011;6354;51.026;8.968;2023-04-26T07:50:28;8.60;;;4.05;;
12577;SDS011;6354;51.026;8.968;2023-04-26T07:52:56;8.38;;;3.72;;
12577;SDS011;6354;51.026;8.968;2023-04-26T07:55:24;7.20;;;3.58;;
12577;SDS011;6354;51.026;8.968;2023-04-26T07:57:52;10.15;;;4.30;;
12577;SDS011;6354;51.026;8.968;2023-04-26T08:00:20;9.60;;;3.70;;
12577;SDS011;6354;51.026;8.968;2023-04-26T08:02:50;7.65;;;3.42;;
12577;SDS011;6354;51.026;8.968;2023-04-26T08:05:18;9.52;;;3.70;;
12577;SDS011;6354;51.026;8.968;2023-04-26T08:07:47;6.43;;;3.47;;
12577;SDS011;6354;51.026;8.968;2023-04-26T08:10:15;6.38;;;2.97;;
12577;SDS011;6354;51.026;8.968;2023-04-26T08:12:43;6.45;;;3.15;;
12577;SDS011;6354;51.026;8.968;2023-04-26T08:15:11;6.38;;;3.00;;
12577;SDS011;6354;51.026;8.968;2023-04-26T08:17:39;5.40;;;3.47;;
12577;SDS011;6354;51.026;8.968;2023-04-26T08:20:09;6.57;;;3.42;;
12577;SDS011;6354;51.026;8.968;2023-04-26T08:22:38;5.90;;;3.00;;
12577;SDS011;6354;51.026;8.968;2023-04-26T08:25:06;4.77;;;3.43;;
12577;SDS011;6354;51.026;8.968;2023-04-26T08:27:34;6.07;;;3.53;;
12577;SDS011;6354;51.026;8.968;2023-04-26T08:30:03;6.40;;;4.00;;
12577;SDS011;6354;51.026;8.968;2023-04-26T08:32:31;6.83;;;3.20;;
12577;SDS011;6354;51.026;8.968;2023-04-26T08:35:00;6.90;;;3.70;;
12577;SDS011;6354;51.026;8.968;2023-04-26T08:37:30;8.13;;;3.47;;
12577;SDS011;6354;51.026;8.968;2023-04-26T08:39:58;4.77;;;3.23;;
12577;SDS011;6354;51.026;8.968;2023-04-26T08:42:26;7.57;;;3.50;;
12577;SDS011;6354;51.026;8.968;2023-04-26T08:44:54;7.60;;;3.40;;
12577;SDS011;6354;51.026;8.968;2023-04-26T08:47:27;7.00;;;3.17;;
12577;SDS011;6354;51.026;8.968;2023-04-26T08:50:02;7.10;;;3.63;;
12577;SDS011;6354;51.026;8.968;2023-04-26T08:52:33;6.83;;;3.80;;
12577;SDS011;6354;51.026;8.968;2023-04-26T08:55:03;6.97;;;3.53;;
12577;SDS011;6354;51.026;8.968;2023-04-26T08:57:32;4.87;;;2.90;;
12577;SDS011;6354;51.026;8.968;2023-04-26T09:00:01;9.73;;;3.60;;
12577;SDS011;6354;51.026;8.968;2023-04-26T09:02:31;8.07;;;3.37;;
12577;SDS011;6354;51.026;8.968;2023-04-26T09:05:01;7.40;;;3.70;;
12577;SDS011;6354;51.026;8.968;2023-04-26T09:07:32;6.60;;;3.23;;
12577;SDS011;6354;51.026;8.968;2023-04-26T09:10:06;9.83;;;3.90;;
12577;SDS011;6354;51.026;8.968;2023-04-26T09:12:35;7.17;;;3.40;;
12577;SDS011;6354;51.026;8.968;2023-04-26T09:15:03;6.63;;;2.87;;
12577;SDS011;6354;51.026;8.968;2023-04-26T09:17:34;6.60;;;3.20;;
12577;SDS011;6354;51.026;8.968;2023-04-26T09:20:16;8.37;;;2.67;;
12577;SDS011;6354;51.026;8.968;2023-04-26T09:22:47;7.87;;;2.80;;
12577;SDS011;6354;51.026;8.968;2023-04-26T09:25:18;6.67;;;2.60;;
12577;SDS011;6354;51.026;8.968;2023-04-26T09:27:54;6.10;;;2.60;;
12577;SDS011;6354;51.026;8.968;2023-04-26T09:30:22;5.97;;;2.50;;
12577;SDS011;6354;51.026;8.968;2023-04-26T09:32:51;7.83;;;3.33;;
12577;SDS011;6354;51.026;8.968;2023-04-26T09:35:25;6.37;;;2.53;;
12577;SDS011;6354;51.026;8.968;2023-04-26T09:37:56;8.20;;;2.63;;
12577;SDS011;6354;51.026;8.968;2023-04-26T09:40:34;7.93;;;3.03;;
12577;SDS011;6354;51.026;8.968;2023-04-26T09:43:04;6.00;;;2.60;;
12577;SDS011;6354;51.026;8.968;2023-04-26T09:45:42;5.13;;;3.00;;
12577;SDS011;6354;51.026;8.968;2023-04-26T09:48:13;5.33;;;2.70;;
12577;SDS011;6354;51.026;8.968;2023-04-26T09:50:42;7.57;;;2.87;;
12577;SDS011;6354;51.026;8.968;2023-04-26T09:53:24;5.97;;;2.80;;
12577;SDS011;6354;51.026;8.968;2023-04-26T09:56:04;3.00;;;2.47;;
12577;SDS011;6354;51.026;8.968;2023-04-26T09:58:35;2.90;;;2.10;;
12577;SDS011;6354;51.026;8.968;2023-04-26T10:01:04;3.30;;;2.30;;
12577;SDS011;6354;51.026;8.968;2023-04-26T10:03:33;5.67;;;2.20;;
12577;SDS011;6354;51.026;8.968;2023-04-26T10:06:02;6.67;;;2.30;;
12577;SDS011;6354;51.026;8.968;2023-04-26T10:08:32;5.60;;;2.13;;
12577;SDS011;6354;51.026;8.968;2023-04-26T10:11:01;4.93;;;2.47;;
12577;SDS011;6354;51.026;8.968;2023-04-26T10:13:30;5.33;;;2.60;;
12577;SDS011;6354;51.026;8.968;2023-04-26T10:15:59;6.53;;;2.70;;
12577;SDS011;6354;51.026;8.968;2023-04-26T10:18:28;4.83;;;2.80;;
12577;SDS011;6354;51.026;8.968;2023-04-26T10:20:57;5.10;;;2.50;;
12577;SDS011;6354;51.026;8.968;2023-04-26T10:23:28;7.17;;;2.70;;
12577;SDS011;6354;51.026;8.968;2023-04-26T10:25:57;4.00;;;2.30;;
12577;SDS011;6354;51.026;8.968;2023-04-26T10:34:30;4.00;;;2.27;;
12577;SDS011;6354;51.026;8.968;2023-04-26T10:37:08;4.17;;;2.60;;
12577;SDS011;6354;51.026;8.968;2023-04-26T10:39:37;4.30;;;2.20;;
12577;SDS011;6354;51.026;8.968;2023-04-26T10:42:20;6.37;;;3.00;;
12577;SDS011;6354;51.026;8.968;2023-04-26T10:44:52;6.73;;;2.70;;
12577;SDS011;6354;51.026;8.968;2023-04-26T10:47:21;5.80;;;2.30;;
12577;SDS011;6354;51.026;8.968;2023-04-26T10:49:50;3.77;;;2.40;;
12577;SDS011;6354;51.026;8.968;2023-04-26T10:52:19;5.63;;;2.43;;
12577;SDS011;6354;51.026;8.968;2023-04-26T10:54:49;5.57;;;2.43;;
12577;SDS011;6354;51.026;8.968;2023-04-26T10:57:23;6.73;;;2.87;;
12577;SDS011;6354;51.026;8.968;2023-04-26T11:03:05;6.67;;;2.37;;
12577;SDS011;6354;51.026;8.968;2023-04-26T11:05:35;6.37;;;2.77;;
12577;SDS011;6354;51.026;8.968;2023-04-26T11:08:25;4.80;;;2.50;;
12577;SDS011;6354;51.026;8.968;2023-04-26T11:10:56;4.77;;;2.40;;
12577;SDS011;6354;51.026;8.968;2023-04-26T11:13:38;4.17;;;2.40;;
12577;SDS011;6354;51.026;8.968;2023-04-26T11:16:09;7.40;;;2.73;;
12577;SDS011;6354;51.026;8.968;2023-04-26T11:18:38;5.37;;;2.90;;
12577;SDS011;6354;51.026;8.968;2023-04-26T11:21:08;7.00;;;3.23;;
12577;SDS011;6354;51.026;8.968;2023-04-26T11:23:39;6.00;;;2.80;;
12577;SDS011;6354;51.026;8.968;2023-04-26T11:26:07;4.13;;;2.60;;
12577;SDS011;6354;51.026;8.968;2023-04-26T11:28:36;4.43;;;2.73;;
12577;SDS011;6354;51.026;8.968;2023-04-26T11:31:06;7.30;;;3.10;;
12577;SDS011;6354;51.026;8.968;2023-04-26T11:33:34;6.77;;;2.70;;
12577;SDS011;6354;51.026;8.968;2023-04-26T11:36:03;6.37;;;2.70;;
12577;SDS011;6354;51.026;8.968;2023-04-26T11:38:31;4.83;;;2.70;;
12577;SDS011;6354;51.026;8.968;2023-04-26T11:40:59;8.57;;;2.80;;
12577;SDS011;6354;51.026;8.968;2023-04-26T11:43:29;5.83;;;2.73;;
12577;SDS011;6354;51.026;8.968;2023-04-26T11:46:03;5.23;;;2.47;;
12577;SDS011;6354;51.026;8.968;2023-04-26T11:48:32;5.90;;;3.03;;
12577;SDS011;6354;51.026;8.968;2023-04-26T11:51:02;7.37;;;3.60;;
12577;SDS011;6354;51.026;8.968;2023-04-26T11:53:34;5.40;;;3.10;;
12577;SDS011;6354;51.026;8.968;2023-04-26T11:56:04;8.10;;;3.23;;
12577;SDS011;6354;51.026;8.968;2023-04-26T11:58:42;10.13;;;3.23;;
12577;SDS011;6354;51.026;8.968;2023-04-26T12:01:18;8.00;;;3.40;;
12577;SDS011;6354;51.026;8.968;2023-04-26T12:03:49;5.20;;;2.93;;
12577;SDS011;6354;51.026;8.968;2023-04-26T12:06:18;4.90;;;3.00;;
12577;SDS011;6354;51.026;8.968;2023-04-26T12:08:48;4.53;;;2.87;;
12577;SDS011;6354;51.026;8.968;2023-04-26T12:11:17;6.07;;;3.00;;
12577;SDS011;6354;51.026;8.968;2023-04-26T12:13:45;4.33;;;2.80;;
12577;SDS011;6354;51.026;8.968;2023-04-26T12:16:15;7.70;;;3.10;;
12577;SDS011;6354;51.026;8.968;2023-04-26T12:18:52;8.40;;;4.10;;
12577;SDS011;6354;51.026;8.968;2023-04-26T12:21:20;7.80;;;3.20;;
12577;SDS011;6354;51.026;8.968;2023-04-26T12:23:49;4.33;;;2.53;;
12577;SDS011;6354;51.026;8.968;2023-04-26T12:26:17;5.07;;;2.70;;
12577;SDS011;6354;51.026;8.968;2023-04-26T12:28:45;7.23;;;3.03;;
12577;SDS011;6354;51.026;8.968;2023-04-26T12:31:15;6.53;;;2.87;;
12577;SDS011;6354;51.026;8.968;2023-04-26T12:33:43;5.70;;;3.07;;
12577;SDS011;6354;51.026;8.968;2023-04-26T12:36:11;5.10;;;2.80;;
12577;SDS011;6354;51.026;8.968;2023-04-26T12:38:39;7.63;;;3.53;;
12577;SDS011;6354;51.026;8.968;2023-04-26T12:41:08;8.13;;;3.23;;
12577;SDS011;6354;51.026;8.968;2023-04-26T12:43:36;5.18;;;3.05;;
12577;SDS011;6354;51.026;8.968;2023-04-26T12:46:04;8.80;;;4.20;;
12577;SDS011;6354;51.026;8.968;2023-04-26T12:48:33;14.27;;;4.77;;
12577;SDS011;6354;51.026;8.968;2023-04-26T12:51:02;6.53;;;2.77;;
12577;SDS011;6354;51.026;8.968;2023-04-26T12:53:30;10.33;;;4.63;;
12577;SDS011;6354;51.026;8.968;2023-04-26T12:55:59;8.70;;;3.67;;
12577;SDS011;6354;51.026;8.968;2023-04-26T12:58:27;9.03;;;2.90;;
12577;SDS011;6354;51.026;8.968;2023-04-26T13:00:55;10.03;;;4.13;;
12577;SDS011;6354;51.026;8.968;2023-04-26T13:03:23;4.77;;;2.83;;
12577;SDS011;6354;51.026;8.968;2023-04-26T13:05:53;6.97;;;3.23;;
12577;SDS011;6354;51.026;8.968;2023-04-26T13:08:21;14.00;;;5.20;;
12577;SDS011;6354;51.026;8.968;2023-04-26T13:10:49;7.13;;;2.90;;
12577;SDS011;6354;51.026;8.968;2023-04-26T13:13:17;5.03;;;2.90;;
12577;SDS011;6354;51.026;8.968;2023-04-26T13:15:51;5.00;;;2.90;;
12577;SDS011;6354;51.026;8.968;2023-04-26T13:18:19;5.87;;;3.10;;
12577;SDS011;6354;51.026;8.968;2023-04-26T13:20:47;5.93;;;3.27;;
12577;SDS011;6354;51.026;8.968;2023-04-26T13:23:17;3.00;;;2.53;;
12577;SDS011;6354;51.026;8.968;2023-04-26T13:25:45;5.95;;;2.55;;
12577;SDS011;6354;51.026;8.968;2023-04-26T13:28:13;8.93;;;3.00;;
12577;SDS011;6354;51.026;8.968;2023-04-26T13:30:41;5.47;;;2.60;;
12577;SDS011;6354;51.026;8.968;2023-04-26T13:33:09;5.37;;;2.80;;
12577;SDS011;6354;51.026;8.968;2023-04-26T13:35:37;5.30;;;2.80;;
12577;SDS011;6354;51.026;8.968;2023-04-26T13:38:05;4.60;;;2.60;;
12577;SDS011;6354;51.026;8.968;2023-04-26T13:40:34;6.93;;;3.07;;
12577;SDS011;6354;51.026;8.968;2023-04-26T13:43:04;7.10;;;2.97;;
12577;SDS011;6354;51.026;8.968;2023-04-26T13:45:31;3.80;;;3.00;;
12577;SDS011;6354;51.026;8.968;2023-04-26T13:48:02;4.57;;;2.80;;
12577;SDS011;6354;51.026;8.968;2023-04-26T13:50:30;7.13;;;2.87;;
12577;SDS011;6354;51.026;8.968;2023-04-26T13:52:58;6.40;;;3.10;;
12577;SDS011;6354;51.026;8.968;2023-04-26T13:55:27;5.17;;;2.77;;
12577;SDS011;6354;51.026;8.968;2023-04-26T13:57:57;6.87;;;3.97;;
12577;SDS011;6354;51.026;8.968;2023-04-26T14:00:25;6.63;;;3.87;;
12577;SDS011;6354;51.026;8.968;2023-04-26T14:02:53;4.93;;;3.27;;
12577;SDS011;6354;51.026;8.968;2023-04-26T14:05:21;7.83;;;3.10;;
12577;SDS011;6354;51.026;8.968;2023-04-26T14:07:50;6.37;;;3.73;;
12577;SDS011;6354;51.026;8.968;2023-04-26T14:10:20;4.70;;;2.80;;
12577;SDS011;6354;51.026;8.968;2023-04-26T14:12:48;4.87;;;3.20;;
12577;SDS011;6354;51.026;8.968;2023-04-26T14:15:18;4.13;;;3.00;;
12577;SDS011;6354;51.026;8.968;2023-04-26T14:17:46;5.73;;;2.63;;
12577;SDS011;6354;51.026;8.968;2023-04-26T14:20:14;5.53;;;3.07;;
12577;SDS011;6354;51.026;8.968;2023-04-26T14:22:42;8.73;;;2.80;;
12577;SDS011;6354;51.026;8.968;2023-04-26T14:25:10;5.07;;;2.80;;
12577;SDS011;6354;51.026;8.968;2023-04-26T14:27:38;5.10;;;2.97;;
12577;SDS011;6354;51.026;8.968;2023-04-26T14:30:06;7.53;;;3.10;;
12577;SDS011;6354;51.026;8.968;2023-04-26T14:32:36;4.43;;;2.80;;
12577;SDS011;6354;51.026;8.968;2023-04-26T14:35:04;5.00;;;2.63;;
12577;SDS011;6354;51.026;8.968;2023-04-26T14:37:33;5.10;;;2.80;;
12577;SDS011;6354;51.026;8.968;2023-04-26T14:40:02;5.60;;;3.10;;
12577;SDS011;6354;51.026;8.968;2023-04-26T14:42:31;7.53;;;3.20;;
12577;SDS011;6354;51.026;8.968;2023-04-26T14:44:59;5.80;;;2.80;;
12577;SDS011;6354;51.026;8.968;2023-04-26T14:47:27;5.10;;;2.80;;
12577;SDS011;6354;51.026;8.968;2023-04-26T14:49:57;4.10;;;2.80;;
12577;SDS011;6354;51.026;8.968;2023-04-26T14:52:25;7.63;;;3.00;;
12577;SDS011;6354;51.026;8.968;2023-04-26T14:54:54;6.73;;;2.90;;
12577;SDS011;6354;51.026;8.968;2023-04-26T14:57:22;4.20;;;2.80;;
12577;SDS011;6354;51.026;8.968;2023-04-26T14:59:50;4.03;;;2.60;;
12577;SDS011;6354;51.026;8.968;2023-04-26T15:02:18;6.50;;;3.00;;
12577;SDS011;6354;51.026;8.968;2023-04-26T15:04:46;5.27;;;3.13;;
12577;SDS011;6354;51.026;8.968;2023-04-26T15:07:16;6.67;;;3.03;;
12577;SDS011;6354;51.026;8.968;2023-04-26T15:09:57;7.03;;;2.80;;
12577;SDS011;6354;51.026;8.968;2023-04-26T15:12:25;4.00;;;2.60;;
12577;SDS011;6354;51.026;8.968;2023-04-26T15:14:53;10.63;;;3.00;;
12577;SDS011;6354;51.026;8.968;2023-04-26T15:17:21;6.57;;;3.00;;
12577;SDS011;6354;51.026;8.968;2023-04-26T15:19:49;4.33;;;2.50;;